createdAt,value
2023-05-07T00:02:24.496Z,98352.41
2023-05-07T00:04:53.695Z,98351.47
2023-05-07T00:07:22.815Z,98349.63
2023-05-07T00:09:51.905Z,98355.38
2023-05-07T00:12:21.143Z,98344.25
2023-05-07T00:14:50.539Z,98338.34
2023-05-07T00:17:19.613Z,98339.72
2023-05-07T00:19:48.776Z,98344.09
2023-05-07T00:22:18.460Z,98341.25
2023-05-07T00:24:47.564Z,98337.97
2023-05-07T00:27:17.174Z,98337.19
2023-05-07T00:29:46.295Z,98337.19
2023-05-07T00:32:15.646Z,98338.78
2023-05-07T00:34:45.281Z,98341.75
2023-05-07T00:37:14.412Z,98344.38
2023-05-07T00:39:43.529Z,98331.63
2023-05-07T00:42:12.602Z,98333.31
2023-05-07T00:44:41.693Z,98328.63
2023-05-07T00:47:11.536Z,98335.38
2023-05-07T00:49:43.760Z,98334.34
2023-05-07T00:52:16.037Z,98326.53
2023-05-07T00:54:45.805Z,98331.41
2023-05-07T00:57:15.872Z,98328.59
2023-05-07T00:59:45.041Z,98333.75
2023-05-07T01:02:14.102Z,98328.88
2023-05-07T01:04:43.163Z,98336.09
2023-05-07T01:07:12.829Z,98336.09
2023-05-07T01:09:42.064Z,98334.47
2023-05-07T01:12:11.642Z,98333.25
2023-05-07T01:14:40.807Z,98330.03
2023-05-07T01:17:10.226Z,98333.75
2023-05-07T01:19:39.359Z,98327.31
2023-05-07T01:22:10.440Z,98330.53
2023-05-07T01:24:48.973Z,98330.19
2023-05-07T01:27:19.339Z,98322.06
2023-05-07T01:29:50.219Z,98328.59
2023-05-07T01:32:25.686Z,98334.97
2023-05-07T01:34:55.532Z,98327.69
2023-05-07T01:37:25.814Z,98332.75
2023-05-07T01:39:55.288Z,98344.63
2023-05-07T01:42:24.741Z,98332.94
2023-05-07T01:44:53.885Z,98333.75
2023-05-07T01:47:24.379Z,98328.72
2023-05-07T01:49:53.989Z,98324.88
2023-05-07T01:52:23.076Z,98324.88
2023-05-07T01:54:52.092Z,98322.44
2023-05-07T01:57:21.860Z,98338.56
2023-05-07T01:59:51.427Z,98324.88
2023-05-07T02:02:21.018Z,98320.63
2023-05-07T02:04:50.592Z,98320.63
2023-05-07T02:07:21.123Z,98328.28
2023-05-07T02:09:50.692Z,98318.00
2023-05-07T02:12:19.732Z,98324.28
2023-05-07T02:14:48.833Z,98317.63
2023-05-07T02:17:18.026Z,98313.66
2023-05-07T02:19:47.069Z,98313.06
2023-05-07T02:22:36.076Z,98311.22
2023-05-07T02:25:05.543Z,98314.06
2023-05-07T02:27:34.675Z,98317.72
2023-05-07T02:30:04.281Z,98317.72
2023-05-07T02:32:33.670Z,98310.72
2023-05-07T02:35:02.789Z,98318.00
2023-05-07T02:37:32.666Z,98310.13
2023-05-07T02:40:01.884Z,98324.28
2023-05-07T02:42:32.253Z,98317.06
2023-05-07T02:45:01.419Z,98317.69
2023-05-07T02:47:32.675Z,98308.47
2023-05-07T02:50:04.712Z,98324.00
2023-05-07T02:52:34.036Z,98314.75
2023-05-07T02:55:03.627Z,98330.06
2023-05-07T02:57:32.885Z,98322.41
2023-05-07T03:00:12.194Z,98322.59
2023-05-07T03:02:43.798Z,98328.50
2023-05-07T03:05:13.732Z,98332.56
2023-05-07T03:07:46.476Z,98333.03
2023-05-07T03:10:16.862Z,98335.91
2023-05-07T03:12:46.345Z,98348.66
2023-05-07T03:15:18.856Z,98346.22
2023-05-07T03:17:48.447Z,98356.13
2023-05-07T03:20:17.691Z,98356.56
2023-05-07T03:22:47.070Z,98349.13
2023-05-07T03:25:16.181Z,98345.06
2023-05-07T03:27:45.355Z,98350.09
2023-05-07T03:30:14.766Z,98357.38
2023-05-07T03:32:43.866Z,98363.78
2023-05-07T03:35:14.949Z,98358.13
2023-05-07T03:37:44.013Z,98365.56
2023-05-07T03:40:14.548Z,98366.13
2023-05-07T03:42:49.393Z,98367.59
2023-05-07T03:45:20.744Z,98369.03
2023-05-07T03:47:57.625Z,98378.50
2023-05-07T03:50:26.845Z,98373.03
2023-05-07T03:52:55.995Z,98373.00
2023-05-07T03:55:26.459Z,98366.31
2023-05-07T03:57:59.780Z,98369.66
2023-05-07T04:00:34.610Z,98375.66
2023-05-07T04:03:05.590Z,98372.03
2023-05-07T04:05:34.860Z,98371.00
2023-05-07T04:08:06.600Z,98377.69
2023-05-07T04:10:42.276Z,98381.66
2023-05-07T04:13:14.187Z,98380.22
2023-05-07T04:15:44.536Z,98385.28
2023-05-07T04:18:16.865Z,98386.06
2023-05-07T04:20:51.344Z,98388.69
2023-05-07T04:23:20.625Z,98389.34
2023-05-07T04:25:49.753Z,98385.56
2023-05-07T04:28:35.395Z,98397.19
2023-05-07T04:31:04.859Z,98387.34
2023-05-07T04:33:35.562Z,98386.72
2023-05-07T04:36:05.798Z,98397.72
2023-05-07T04:38:39.903Z,98403.78
2023-05-07T04:41:09.991Z,98413.66
2023-05-07T04:43:42.792Z,98413.19
2023-05-07T04:46:13.241Z,98415.00
2023-05-07T04:48:43.015Z,98413.66
2023-05-07T04:51:12.139Z,98416.63
2023-05-07T04:53:41.548Z,98421.22
2023-05-07T04:56:10.853Z,98423.78
2023-05-07T04:58:45.485Z,98418.53
2023-05-07T05:01:14.961Z,98419.94
2023-05-07T05:03:44.604Z,98420.66
2023-05-07T05:06:13.932Z,98410.09
2023-05-07T05:08:42.983Z,98416.66
2023-05-07T05:11:13.154Z,98423.00
2023-05-07T05:13:42.270Z,98425.34
2023-05-07T05:16:19.644Z,98418.56
2023-05-07T05:18:48.886Z,98429.91
2023-05-07T05:21:21.290Z,98427.78
2023-05-07T05:23:53.416Z,98429.09
2023-05-07T05:26:25.620Z,98424.19
2023-05-07T05:28:54.707Z,98422.53
2023-05-07T05:31:26.366Z,98422.22
2023-05-07T05:33:55.454Z,98419.72
2023-05-07T05:36:24.730Z,98426.72
2023-05-07T05:38:56.709Z,98422.75
2023-05-07T05:41:26.004Z,98425.50
2023-05-07T05:43:55.367Z,98427.78
2023-05-07T05:46:24.746Z,98424.13
2023-05-07T05:48:54.467Z,98427.25
2023-05-07T05:51:24.235Z,98430.13
2023-05-07T05:56:35.830Z,98416.84
2023-05-07T05:59:05.050Z,98419.50
2023-05-07T06:01:34.718Z,98427.28
2023-05-07T06:04:06.075Z,98427.44
2023-05-07T06:06:35.403Z,98428.34
2023-05-07T06:09:05.659Z,98429.13
2023-05-07T06:11:42.056Z,98421.47
2023-05-07T06:14:11.753Z,98420.75
2023-05-07T06:16:41.772Z,98422.56
2023-05-07T06:19:11.021Z,98428.34
2023-05-07T06:21:41.620Z,98427.97
2023-05-07T06:24:11.189Z,98429.94
2023-05-07T06:26:41.801Z,98440.25
2023-05-07T06:29:11.221Z,98434.78
2023-05-07T06:31:43.034Z,98435.09
2023-05-07T06:34:16.276Z,98433.03
2023-05-07T06:36:45.644Z,98436.56
2023-05-07T06:39:24.476Z,98427.22
2023-05-07T06:41:55.221Z,98428.16
2023-05-07T06:44:29.181Z,98429.03
2023-05-07T06:47:15.818Z,98434.72
2023-05-07T06:49:47.314Z,98425.44
2023-05-07T06:52:19.702Z,98428.19
2023-05-07T06:54:50.764Z,98425.16
2023-05-07T06:57:22.561Z,98422.09
2023-05-07T06:59:51.652Z,98422.47
2023-05-07T07:02:21.312Z,98423.56
2023-05-07T07:04:52.196Z,98416.84
2023-05-07T07:07:22.238Z,98413.88
2023-05-07T07:09:52.581Z,98410.88
2023-05-07T07:12:23.694Z,98404.69
2023-05-07T07:14:52.770Z,98405.41
2023-05-07T07:17:21.961Z,98403.72
2023-05-07T07:19:51.128Z,98405.75
2023-05-07T07:22:20.755Z,98406.69
2023-05-07T07:24:49.920Z,98410.94
2023-05-07T07:27:20.753Z,98416.59
2023-05-07T07:29:50.100Z,98405.97
2023-05-07T07:32:19.225Z,98401.91
2023-05-07T07:34:48.769Z,98408.97
2023-05-07T07:37:17.960Z,98408.50
2023-05-07T07:39:47.163Z,98404.25
2023-05-07T07:42:16.186Z,98400.31
2023-05-07T07:44:45.761Z,98403.34
2023-05-07T07:47:16.710Z,98399.00
2023-05-07T07:49:47.179Z,98395.84
2023-05-07T07:52:16.605Z,98395.16
2023-05-07T07:54:47.214Z,98397.06
2023-05-07T07:57:16.356Z,98391.53
2023-05-07T07:59:45.682Z,98389.06
2023-05-07T08:02:16.985Z,98377.53
2023-05-07T08:04:46.377Z,98375.00
2023-05-07T08:07:15.831Z,98387.22
2023-05-07T08:09:48.535Z,98382.50
2023-05-07T08:12:19.673Z,98379.06
2023-05-07T08:14:48.910Z,98377.84
2023-05-07T08:17:18.150Z,98373.75
2023-05-07T08:19:48.634Z,98367.00
2023-05-07T08:22:19.476Z,98371.06
2023-05-07T08:24:48.641Z,98368.59
2023-05-07T08:27:17.729Z,98367.38
2023-05-07T08:29:48.585Z,98365.38
2023-05-07T08:32:18.993Z,98375.59
2023-05-07T08:34:48.833Z,98364.03
2023-05-07T08:37:18.032Z,98358.53
2023-05-07T08:39:48.197Z,98355.97
2023-05-07T08:42:25.684Z,98351.28
2023-05-07T08:45:00.564Z,98349.47
2023-05-07T08:47:36.501Z,98354.03
2023-05-07T08:50:07.252Z,98347.19
2023-05-07T08:52:36.448Z,98343.47
2023-05-07T08:55:06.500Z,98343.59
2023-05-07T08:57:36.430Z,98348.13
2023-05-07T09:00:08.364Z,98342.88
2023-05-07T09:02:39.173Z,98345.84
2023-05-07T09:05:10.306Z,98341.41
2023-05-07T09:07:40.570Z,98344.63
2023-05-07T09:10:10.897Z,98333.31
2023-05-07T09:12:42.227Z,98335.25
2023-05-07T09:15:14.681Z,98338.50
2023-05-07T09:17:44.827Z,98333.50
2023-05-07T09:20:14.374Z,98325.31
2023-05-07T09:22:45.290Z,98321.88
2023-05-07T09:25:29.041Z,98309.50
2023-05-07T09:27:58.613Z,98316.44
2023-05-07T09:30:32.511Z,98311.72
2023-05-07T09:33:04.676Z,98312.84
2023-05-07T09:35:36.179Z,98312.88
2023-05-07T09:38:10.183Z,98315.28
2023-05-07T09:40:39.921Z,98314.53
2023-05-07T09:43:14.965Z,98309.22
2023-05-07T09:45:53.899Z,98303.41
2023-05-07T09:48:27.852Z,98297.59
2023-05-07T09:51:01.118Z,98297.34
2023-05-07T09:53:34.803Z,98298.13
2023-05-07T09:56:06.992Z,98296.00
2023-05-07T09:58:38.181Z,98303.94
2023-05-07T10:01:08.022Z,98306.59
2023-05-07T10:03:37.788Z,98309.25
2023-05-07T10:06:10.140Z,98306.06
2023-05-07T10:08:39.588Z,98296.00
2023-05-07T10:11:10.969Z,98311.38
2023-05-07T10:13:41.207Z,98304.75
2023-05-07T10:16:12.233Z,98295.47
2023-05-07T10:18:48.101Z,98298.66
2023-05-07T10:21:24.021Z,98301.59
2023-05-07T10:24:07.070Z,98301.34
2023-05-07T10:26:38.506Z,98301.34
2023-05-07T10:29:27.658Z,98297.88
2023-05-07T10:31:57.711Z,98303.97
2023-05-07T10:34:30.836Z,98296.28
2023-05-07T10:37:00.412Z,98296.03
2023-05-07T10:39:30.952Z,98297.38
2023-05-07T10:42:13.524Z,98292.59
2023-05-07T10:44:47.307Z,98294.75
2023-05-07T10:47:23.888Z,98294.16
2023-05-07T10:49:56.530Z,98300.28
2023-05-07T10:52:31.345Z,98291.53
2023-05-07T10:55:18.692Z,98295.22
2023-05-07T10:57:55.764Z,98288.06
2023-05-07T11:00:38.579Z,98293.13
2023-05-07T11:03:12.885Z,98295.50
2023-05-07T11:06:13.795Z,98290.22
2023-05-07T11:09:03.243Z,98283.59
2023-05-07T11:11:52.205Z,98281.72
2023-05-07T11:14:42.220Z,98295.53
2023-05-07T11:17:14.242Z,98286.22
2023-05-07T11:19:55.268Z,98283.03
2023-05-07T11:22:42.695Z,98293.13
2023-05-07T11:25:26.329Z,98290.75
2023-05-07T11:28:11.481Z,98292.34
2023-05-07T11:30:46.193Z,98293.69
2023-05-07T11:33:19.713Z,98286.00
2023-05-07T11:35:51.674Z,98304.56
2023-05-07T11:38:22.209Z,98288.63
2023-05-07T11:40:55.418Z,98301.41
2023-05-07T11:43:24.528Z,98287.34
2023-05-07T11:45:53.800Z,98282.56
2023-05-07T11:48:25.423Z,98286.53
2023-05-07T11:51:02.910Z,98283.38
2023-05-07T11:53:40.933Z,98284.97
2023-05-07T11:56:11.608Z,98310.72
2023-05-07T11:58:41.985Z,98292.13
2023-05-07T12:01:12.724Z,98287.34
2023-05-07T12:03:49.030Z,98286.81
2023-05-07T12:06:18.870Z,98294.25
2023-05-07T12:08:48.601Z,98294.50
2023-05-07T12:11:27.008Z,98286.81
2023-05-07T12:13:59.923Z,98288.13
2023-05-07T12:16:30.161Z,98280.72
2023-05-07T12:19:00.333Z,98286.00
2023-05-07T12:21:30.605Z,98290.25
2023-05-07T12:23:59.687Z,98290.78
2023-05-07T12:26:28.756Z,98293.47
2023-05-07T12:29:01.096Z,98297.69
2023-05-07T12:31:30.460Z,98281.75
2023-05-07T12:33:59.512Z,98287.63
2023-05-07T12:36:38.535Z,98289.44
2023-05-07T12:39:09.771Z,98259.75
2023-05-07T12:41:55.576Z,98271.69
2023-05-07T12:44:34.378Z,98249.84
2023-05-07T12:47:03.927Z,98241.81
2023-05-07T12:49:37.833Z,98239.91
2023-05-07T12:52:07.317Z,98238.00
2023-05-07T12:54:39.084Z,98240.06
2023-05-07T12:57:11.725Z,98235.19
2023-05-07T12:59:42.708Z,98224.03
2023-05-07T13:02:11.894Z,98235.06
2023-05-07T13:04:42.712Z,98236.63
2023-05-07T13:07:11.894Z,98249.75
2023-05-07T13:09:40.932Z,98229.50
2023-05-07T13:12:10.100Z,98220.59
2023-05-07T13:14:39.140Z,98232.88
2023-05-07T13:17:08.189Z,98257.50
2023-05-07T13:19:38.557Z,98246.28
2023-05-07T13:22:07.632Z,98239.66
2023-05-07T13:24:36.795Z,98235.34
2023-05-07T13:27:05.867Z,98217.53
2023-05-07T13:29:34.911Z,98221.59
2023-05-07T13:32:04.282Z,98208.69
2023-05-07T13:34:33.434Z,98199.03
2023-05-07T13:37:02.471Z,98210.47
2023-05-07T13:39:31.548Z,98216.09
2023-05-07T13:42:00.665Z,98214.59
2023-05-07T13:44:29.728Z,98200.63
2023-05-07T13:46:58.806Z,98203.34
2023-05-07T13:49:28.012Z,98201.97
2023-05-07T13:51:57.147Z,98199.25
2023-05-07T13:54:26.169Z,98197.81
2023-05-07T13:56:55.222Z,98199.09
2023-05-07T13:59:24.262Z,98212.34
2023-05-07T14:01:53.377Z,98198.63
2023-05-07T14:04:22.796Z,98199.00
2023-05-07T14:06:51.897Z,98199.03
2023-05-07T14:09:20.935Z,98199.00
2023-05-07T14:11:52.337Z,98207.03
2023-05-07T14:14:21.456Z,98213.81
2023-05-07T14:16:51.127Z,98215.66
2023-05-07T14:19:20.860Z,98233.53
2023-05-07T14:21:50.220Z,98235.03
2023-05-07T14:24:34.541Z,98247.56
2023-05-07T14:27:07.129Z,98242.94
2023-05-07T14:29:37.270Z,98251.53
2023-05-07T14:32:06.531Z,98256.34
2023-05-07T14:34:35.737Z,98254.22
2023-05-07T14:37:04.797Z,98255.00
2023-05-07T14:39:33.926Z,98254.66
2023-05-07T14:42:03.177Z,98250.94
2023-05-07T14:44:32.463Z,98252.66
2023-05-07T14:47:02.692Z,98255.91
2023-05-07T14:49:31.893Z,98260.03
2023-05-07T14:52:03.501Z,98255.97
2023-05-07T14:54:38.280Z,98262.19
2023-05-07T14:57:10.880Z,98253.81
2023-05-07T14:59:40.270Z,98261.94
2023-05-07T15:02:11.340Z,98251.75
2023-05-07T15:04:46.893Z,98255.84
2023-05-07T15:07:16.481Z,98256.47
2023-05-07T15:09:45.835Z,98260.22
2023-05-07T15:12:15.105Z,98252.53
2023-05-07T15:14:44.227Z,98261.88
2023-05-07T15:17:16.071Z,98255.22
2023-05-07T15:19:45.247Z,98258.75
2023-05-07T15:22:14.307Z,98266.75
2023-05-07T15:24:43.436Z,98269.97
2023-05-07T15:27:12.759Z,98263.38
2023-05-07T15:29:42.028Z,98269.50
2023-05-07T15:32:11.549Z,98255.56
2023-05-07T15:34:40.833Z,98238.28
2023-05-07T15:37:09.984Z,98227.06
2023-05-07T15:39:39.047Z,98224.34
2023-05-07T15:42:08.299Z,98217.06
2023-05-07T15:44:38.441Z,98210.63
2023-05-07T15:47:07.520Z,98216.53
2023-05-07T15:49:36.555Z,98214.00
2023-05-07T15:52:05.680Z,98214.91
2023-05-07T15:54:34.754Z,98218.59
2023-05-07T15:57:04.507Z,98209.09
2023-05-07T15:59:34.247Z,98212.00
2023-05-07T16:02:04.232Z,98218.59
2023-05-07T16:04:33.470Z,98215.09
2023-05-07T16:07:02.581Z,98210.25
2023-05-07T16:09:31.932Z,98206.44
2023-05-07T16:12:01.364Z,98204.03
2023-05-07T16:14:30.515Z,98210.84
2023-05-07T16:16:59.643Z,98210.81
2023-05-07T16:19:30.116Z,98203.25
2023-05-07T16:21:59.346Z,98210.66
2023-05-07T16:24:28.448Z,98214.06
2023-05-07T16:26:58.655Z,98215.66
2023-05-07T16:29:27.733Z,98213.88
2023-05-07T16:31:57.980Z,98216.63
2023-05-07T16:34:27.084Z,98236.22
2023-05-07T16:36:56.277Z,98243.91
2023-05-07T16:39:26.011Z,98239.63
2023-05-07T16:41:55.112Z,98251.72
2023-05-07T16:44:24.149Z,98258.22
2023-05-07T16:46:53.323Z,98272.09
2023-05-07T16:49:22.652Z,98276.38
2023-05-07T16:51:51.710Z,98276.56
2023-05-07T16:54:20.774Z,98287.47
2023-05-07T16:56:50.730Z,98283.41
2023-05-07T16:59:19.840Z,98294.50
2023-05-07T17:01:49.154Z,98299.44
2023-05-07T17:04:18.779Z,98306.94
2023-05-07T17:06:47.849Z,98316.78
2023-05-07T17:09:16.881Z,98317.28
2023-05-07T17:11:45.950Z,98321.75
2023-05-07T17:14:15.071Z,98314.47
2023-05-07T17:16:44.246Z,98318.84
2023-05-07T17:19:13.386Z,98329.63
2023-05-07T17:21:42.582Z,98331.63
2023-05-07T17:24:11.663Z,98334.66
2023-05-07T17:26:43.227Z,98332.41
2023-05-07T17:29:12.442Z,98341.19
2023-05-07T17:31:41.884Z,98341.97
2023-05-07T17:34:11.190Z,98354.75
2023-05-07T17:36:40.816Z,98351.09
2023-05-07T17:39:09.994Z,98357.13
2023-05-07T17:41:39.002Z,98365.84
2023-05-07T17:44:08.146Z,98371.31
2023-05-07T17:46:37.211Z,98382.66
2023-05-07T17:49:06.355Z,98382.34
2023-05-07T17:51:46.263Z,98378.53
2023-05-07T17:54:24.448Z,98384.50
2023-05-07T17:56:53.874Z,98393.88
2023-05-07T17:59:22.965Z,98407.22
2023-05-07T18:01:52.175Z,98413.91
2023-05-07T18:04:21.900Z,98408.53
2023-05-07T18:06:51.395Z,98414.25
2023-05-07T18:09:20.633Z,98424.22
2023-05-07T18:11:49.699Z,98428.66
2023-05-07T18:14:24.134Z,98430.72
2023-05-07T18:16:54.337Z,98432.94
2023-05-07T18:19:23.526Z,98447.69
2023-05-07T18:21:53.040Z,98447.44
2023-05-07T18:24:22.457Z,98456.88
2023-05-07T18:26:51.613Z,98463.94
2023-05-07T18:29:21.120Z,98463.25
2023-05-07T18:31:50.934Z,98475.09
2023-05-07T18:34:20.360Z,98479.25
2023-05-07T18:36:49.924Z,98480.56
2023-05-07T18:39:19.525Z,98477.19
2023-05-07T18:41:50.966Z,98494.06
2023-05-07T18:44:20.018Z,98493.31
2023-05-07T18:46:49.170Z,98500.47
2023-05-07T18:49:18.377Z,98509.19
2023-05-07T18:51:48.865Z,98513.69
2023-05-07T18:54:18.348Z,98513.38
2023-05-07T18:56:47.822Z,98513.88
2023-05-07T18:59:17.138Z,98516.38
2023-05-07T19:01:46.882Z,98528.56
2023-05-07T19:04:17.459Z,98519.56
2023-05-07T19:06:46.586Z,98537.38
2023-05-07T19:09:16.131Z,98535.75
2023-05-07T19:11:45.475Z,98546.75
2023-05-07T19:14:15.138Z,98554.81
2023-05-07T19:16:44.711Z,98558.72
2023-05-07T19:19:13.796Z,98555.91
2023-05-07T19:21:43.310Z,98561.53
2023-05-07T19:24:12.725Z,98558.34
2023-05-07T19:26:42.082Z,98559.97
2023-05-07T19:29:18.174Z,98568.44
2023-05-07T19:31:47.840Z,98575.09
2023-05-07T19:34:17.572Z,98582.19
2023-05-07T19:36:47.160Z,98589.06
2023-05-07T19:39:17.277Z,98582.59
2023-05-07T19:41:48.034Z,98582.63
2023-05-07T19:44:17.208Z,98591.09
2023-05-07T19:46:47.852Z,98586.25
2023-05-07T19:49:17.346Z,98581.84
2023-05-07T19:51:47.236Z,98592.72
2023-05-07T19:54:18.053Z,98596.16
2023-05-07T19:56:49.058Z,98605.41
2023-05-07T19:59:18.143Z,98608.44
2023-05-07T20:01:47.601Z,98607.22
2023-05-07T20:04:17.198Z,98607.66
2023-05-07T20:06:46.371Z,98605.81
2023-05-07T20:09:15.545Z,98612.44
2023-05-07T20:11:44.750Z,98618.06
2023-05-07T20:14:15.036Z,98619.50
2023-05-07T20:16:44.418Z,98619.28
2023-05-07T20:19:13.875Z,98620.47
2023-05-07T20:21:42.910Z,98619.47
2023-05-07T20:24:12.124Z,98616.84
2023-05-07T20:26:41.422Z,98623.69
2023-05-07T20:29:10.485Z,98627.72
2023-05-07T20:31:39.799Z,98636.16
2023-05-07T20:34:08.930Z,98647.22
2023-05-07T20:36:38.085Z,98643.38
2023-05-07T20:39:07.294Z,98648.19
2023-05-07T20:41:36.385Z,98647.00
2023-05-07T20:44:05.534Z,98650.59
2023-05-07T20:46:36.640Z,98649.56
2023-05-07T20:49:05.746Z,98665.66
2023-05-07T20:51:35.243Z,98660.00
2023-05-07T20:54:04.600Z,98667.84
2023-05-07T20:56:33.621Z,98670.47
2023-05-07T20:59:02.721Z,98680.72
2023-05-07T21:01:31.861Z,98674.66
2023-05-07T21:04:01.090Z,98682.06
2023-05-07T21:06:30.247Z,98684.25
2023-05-07T21:08:59.259Z,98695.16
2023-05-07T21:11:28.321Z,98697.97
2023-05-07T21:13:57.449Z,98693.19
2023-05-07T21:16:26.592Z,98702.03
2023-05-07T21:18:55.736Z,98700.22
2023-05-07T21:21:24.762Z,98706.28
2023-05-07T21:23:54.337Z,98700.50
2023-05-07T21:26:24.082Z,98710.59
2023-05-07T21:28:53.257Z,98705.56
2023-05-07T21:31:22.491Z,98712.47
2023-05-07T21:33:53.220Z,98716.91
2023-05-07T21:36:22.338Z,98715.53
2023-05-07T21:38:52.434Z,98718.97
2023-05-07T21:41:21.844Z,98716.75
2023-05-07T21:43:51.339Z,98717.78
2023-05-07T21:46:20.445Z,98720.00
2023-05-07T21:48:49.521Z,98718.41
2023-05-07T21:51:18.632Z,98716.00
2023-05-07T21:53:47.735Z,98721.59
2023-05-07T21:56:16.801Z,98715.78
2023-05-07T21:58:46.390Z,98723.84
2023-05-07T22:01:15.522Z,98719.41
2023-05-07T22:03:44.705Z,98722.22
2023-05-07T22:06:14.346Z,98728.28
2023-05-07T22:08:43.462Z,98725.66
2023-05-07T22:11:12.531Z,98727.66
2023-05-07T22:13:41.639Z,98733.72
2023-05-07T22:16:10.936Z,98728.09
2023-05-07T22:18:40.086Z,98734.31
2023-05-07T22:21:09.651Z,98733.69
2023-05-07T22:23:38.706Z,98738.28
2023-05-07T22:26:12.419Z,98737.28
2023-05-07T22:28:41.686Z,98733.03
2023-05-07T22:31:11.277Z,98735.66
2023-05-07T22:33:40.423Z,98731.00
2023-05-07T22:36:09.543Z,98732.81
2023-05-07T22:38:38.610Z,98729.56
2023-05-07T22:41:07.719Z,98735.22
2023-05-07T22:43:36.896Z,98719.91
2023-05-07T22:46:06.056Z,98734.41
2023-05-07T22:48:35.254Z,98740.03
2023-05-07T22:51:04.357Z,98737.44
2023-05-07T22:53:33.459Z,98738.03
2023-05-07T22:56:06.164Z,98735.25
2023-05-07T22:58:35.482Z,98736.13
2023-05-07T23:01:12.339Z,98733.91
2023-05-07T23:03:41.542Z,98729.28
2023-05-07T23:06:10.784Z,98733.50
2023-05-07T23:08:39.873Z,98736.50
2023-05-07T23:11:08.905Z,98734.91
2023-05-07T23:13:37.992Z,98738.94
2023-05-07T23:16:07.257Z,98738.13
2023-05-07T23:18:36.334Z,98725.47
2023-05-07T23:21:06.776Z,98728.06
2023-05-07T23:23:35.917Z,98724.03
2023-05-07T23:26:05.677Z,98723.81
2023-05-07T23:28:34.743Z,98725.56
2023-05-07T23:31:07.267Z,98717.72
2023-05-07T23:33:37.168Z,98725.75
2023-05-07T23:36:07.456Z,98723.94
2023-05-07T23:38:36.517Z,98729.16
2023-05-07T23:41:05.535Z,98726.56
2023-05-07T23:43:34.679Z,98721.91
2023-05-07T23:46:04.059Z,98721.44
2023-05-07T23:48:33.084Z,98724.44
2023-05-07T23:51:02.144Z,98724.19
2023-05-07T23:53:31.566Z,98725.75
2023-05-07T23:56:00.645Z,98726.16
2023-05-07T23:58:29.816Z,98731.47
